createdAt,value
2024-01-16T00:00:53.466Z,62.45
2024-01-16T00:03:20.708Z,59.67
2024-01-16T00:05:49.107Z,57.65
2024-01-16T00:08:16.470Z,54.13
2024-01-16T00:10:46.505Z,59.53
2024-01-16T00:13:15.129Z,58.42
2024-01-16T00:15:53.921Z,55.45
2024-01-16T00:18:21.915Z,59.05
2024-01-16T00:20:49.568Z,59.28
2024-01-16T00:23:24.474Z,55.70
2024-01-16T00:25:53.353Z,59.28
2024-01-16T00:28:23.127Z,55.00
2024-01-16T00:30:51.596Z,59.13
2024-01-16T00:33:25.035Z,57.72
2024-01-16T00:35:55.094Z,59.25
2024-01-16T00:38:23.701Z,57.55
2024-01-16T00:40:58.397Z,57.10
2024-01-16T00:43:49.322Z,58.80
2024-01-16T00:46:16.450Z,56.42
2024-01-16T00:48:44.956Z,57.75
2024-01-16T00:51:12.115Z,57.78
2024-01-16T00:53:52.387Z,56.15
2024-01-16T00:56:23.343Z,57.72
2024-01-16T00:58:50.846Z,60.65
2024-01-16T01:01:18.122Z,59.10
2024-01-16T01:03:45.477Z,56.38
2024-01-16T01:06:13.476Z,58.95
2024-01-16T01:08:40.771Z,58.95
2024-01-16T01:11:16.513Z,55.95
2024-01-16T01:13:44.332Z,56.03
2024-01-16T01:16:12.093Z,57.88
2024-01-16T01:18:41.546Z,58.08
2024-01-16T01:21:08.769Z,59.72
2024-01-16T01:23:36.280Z,57.60
2024-01-16T01:26:07.124Z,56.95
2024-01-16T01:28:34.313Z,56.70
2024-01-16T01:31:13.385Z,58.10
2024-01-16T01:33:41.829Z,58.05
2024-01-16T01:36:10.112Z,57.88
2024-01-16T01:38:37.403Z,59.20
2024-01-16T01:41:07.474Z,56.97
2024-01-16T01:43:38.317Z,55.50
2024-01-16T01:46:05.352Z,57.38
2024-01-16T01:48:33.587Z,58.33
2024-01-16T01:51:02.742Z,58.78
2024-01-16T01:53:32.556Z,55.75
2024-01-16T01:56:00.955Z,56.22
2024-01-16T01:58:30.915Z,56.22
2024-01-16T02:00:58.321Z,57.10
2024-01-16T02:03:30.540Z,56.83
2024-01-16T02:05:57.827Z,57.00
2024-01-16T02:08:25.767Z,55.85
2024-01-16T02:10:52.950Z,54.88
2024-01-16T02:13:24.852Z,54.97
2024-01-16T02:15:53.537Z,51.95
2024-01-16T02:18:32.818Z,51.40
2024-01-16T02:21:13.503Z,51.72
2024-01-16T02:23:53.404Z,51.03
2024-01-16T02:26:22.355Z,51.33
2024-01-16T02:28:58.547Z,52.97
2024-01-16T02:31:25.903Z,56.30
2024-01-16T02:33:56.347Z,50.80
2024-01-16T02:36:26.043Z,52.45
2024-01-16T02:38:58.578Z,52.65
2024-01-16T02:41:27.489Z,51.95
2024-01-16T02:43:59.076Z,51.50
2024-01-16T02:46:26.384Z,52.83
2024-01-16T02:48:54.559Z,54.08
2024-01-16T02:51:22.938Z,52.25
2024-01-16T02:53:57.564Z,52.13
2024-01-16T02:56:30.060Z,53.40
2024-01-16T02:58:58.521Z,51.25
2024-01-16T03:01:35.267Z,55.65
2024-01-16T03:04:12.119Z,57.17
2024-01-16T03:06:39.246Z,57.10
2024-01-16T03:09:06.312Z,59.05
2024-01-16T03:11:34.707Z,57.35
2024-01-16T03:14:02.821Z,58.47
2024-01-16T03:16:30.131Z,55.50
2024-01-16T03:18:57.728Z,55.85
2024-01-16T03:21:24.985Z,52.28
2024-01-16T03:23:52.386Z,54.65
2024-01-16T03:26:23.731Z,55.70
2024-01-16T03:28:56.365Z,54.47
2024-01-16T03:31:38.517Z,54.55
2024-01-16T03:34:06.077Z,52.55
2024-01-16T03:36:34.023Z,54.28
2024-01-16T03:39:05.278Z,51.47
2024-01-16T03:41:32.370Z,54.50
2024-01-16T03:44:00.640Z,53.40
2024-01-16T03:46:27.692Z,51.22
2024-01-16T03:48:54.976Z,51.13
2024-01-16T03:51:25.054Z,49.50
2024-01-16T03:53:56.835Z,52.90
2024-01-16T03:56:24.662Z,52.33
2024-01-16T03:58:51.779Z,51.55
2024-01-16T04:01:35.667Z,49.78
2024-01-16T04:04:11.968Z,49.45
2024-01-16T04:06:42.230Z,49.45
2024-01-16T04:09:10.984Z,47.95
2024-01-16T04:11:38.838Z,51.33
2024-01-16T04:14:13.025Z,49.88
2024-01-16T04:16:40.214Z,49.60
2024-01-16T04:19:09.923Z,49.75
2024-01-16T04:21:38.039Z,48.25
2024-01-16T04:24:07.943Z,48.50
2024-01-16T04:26:57.134Z,49.40
2024-01-16T04:29:27.658Z,49.47
2024-01-16T04:31:55.065Z,47.72
2024-01-16T04:34:29.376Z,47.40
2024-01-16T04:37:05.880Z,45.47
2024-01-16T04:39:36.746Z,46.70
2024-01-16T04:42:04.254Z,44.78
2024-01-16T04:44:31.675Z,46.15
2024-01-16T04:47:03.683Z,42.90
2024-01-16T04:49:30.877Z,41.15
2024-01-16T04:52:08.139Z,41.45
2024-01-16T04:54:35.470Z,42.63
2024-01-16T04:57:03.592Z,43.75
2024-01-16T04:59:35.021Z,45.65
2024-01-16T05:02:02.611Z,44.27
2024-01-16T05:04:32.423Z,46.78
2024-01-16T05:06:59.415Z,46.60
2024-01-16T05:09:32.730Z,45.55
2024-01-16T05:12:09.473Z,47.05
2024-01-16T05:14:36.910Z,46.47
2024-01-16T05:17:06.870Z,46.85
2024-01-16T05:19:34.048Z,48.97
2024-01-16T05:22:04.493Z,46.08
2024-01-16T05:24:37.576Z,47.35
2024-01-16T05:27:06.175Z,45.28
2024-01-16T05:29:44.187Z,45.58
2024-01-16T05:32:22.986Z,44.47
2024-01-16T05:34:56.204Z,44.65
2024-01-16T05:37:30.956Z,45.70
2024-01-16T05:39:59.130Z,47.25
2024-01-16T05:42:29.343Z,46.03
2024-01-16T05:44:59.609Z,45.00
2024-01-16T05:47:32.073Z,46.00
2024-01-16T05:49:59.119Z,43.22
2024-01-16T05:52:26.349Z,45.65
2024-01-16T05:54:53.353Z,43.65
2024-01-16T05:57:22.979Z,43.72
2024-01-16T05:59:51.137Z,43.08
2024-01-16T06:02:18.207Z,42.25
2024-01-16T06:04:49.627Z,69.03
2024-01-16T06:07:17.806Z,44.25
2024-01-16T06:09:47.236Z,43.53
2024-01-16T06:12:15.677Z,45.05
2024-01-16T06:14:57.780Z,43.40
2024-01-16T06:17:29.380Z,42.90
2024-01-16T06:19:58.548Z,40.28
2024-01-16T06:22:29.728Z,42.03
2024-01-16T06:24:59.614Z,44.43
2024-01-16T06:27:28.186Z,42.13
2024-01-16T06:29:56.404Z,42.45
2024-01-16T06:32:25.166Z,42.05
2024-01-16T06:34:52.639Z,42.85
2024-01-16T06:37:22.016Z,41.38
2024-01-16T06:39:49.283Z,41.35
2024-01-16T06:42:19.135Z,44.22
2024-01-16T06:44:46.285Z,41.95
2024-01-16T06:47:18.229Z,41.47
2024-01-16T06:49:45.774Z,42.25
2024-01-16T06:52:13.051Z,44.00
2024-01-16T06:54:42.323Z,43.97
2024-01-16T06:57:09.395Z,43.97
2024-01-16T06:59:38.680Z,44.95
2024-01-16T07:02:09.500Z,43.30
2024-01-16T07:04:37.078Z,44.55
2024-01-16T07:07:04.438Z,43.08
2024-01-16T07:09:33.125Z,43.17
2024-01-16T07:12:02.385Z,43.92
2024-01-16T07:14:29.866Z,43.60
2024-01-16T07:16:56.878Z,43.65
2024-01-16T07:19:24.251Z,40.38
2024-01-16T07:21:51.838Z,42.78
2024-01-16T07:24:21.303Z,43.85
2024-01-16T07:26:50.654Z,44.05
2024-01-16T07:29:17.671Z,45.80
2024-01-16T07:31:49.228Z,41.17
2024-01-16T07:34:21.625Z,42.90
2024-01-16T07:36:50.865Z,42.58
2024-01-16T07:39:17.805Z,41.22
2024-01-16T07:41:44.860Z,43.13
2024-01-16T07:44:16.278Z,40.92
2024-01-16T07:46:49.905Z,44.80
2024-01-16T07:49:17.694Z,44.53
2024-01-16T07:51:47.374Z,42.95
2024-01-16T07:54:16.110Z,44.33
2024-01-16T07:56:44.946Z,43.72
2024-01-16T07:59:13.344Z,43.20
2024-01-16T08:01:40.383Z,42.75
2024-01-16T08:04:12.321Z,44.92
2024-01-16T08:06:40.162Z,43.22
2024-01-16T08:09:07.961Z,42.88
2024-01-16T08:11:42.716Z,43.72
2024-01-16T08:14:13.716Z,44.47
2024-01-16T08:16:40.779Z,45.05
2024-01-16T08:19:10.897Z,45.83
2024-01-16T08:21:42.251Z,47.58
2024-01-16T08:24:09.350Z,43.60
2024-01-16T08:26:36.383Z,43.13
2024-01-16T08:29:05.187Z,42.15
2024-01-16T08:31:32.555Z,44.40
2024-01-16T08:34:08.719Z,44.22
2024-01-16T08:36:37.104Z,44.63
2024-01-16T08:39:07.266Z,44.75
2024-01-16T08:41:39.269Z,44.90
2024-01-16T08:44:07.878Z,44.80
2024-01-16T08:46:50.631Z,45.38
2024-01-16T08:49:21.803Z,47.47
2024-01-16T08:51:51.568Z,47.95
2024-01-16T08:54:19.055Z,48.70
2024-01-16T08:56:54.707Z,50.95
2024-01-16T08:59:23.158Z,49.60
2024-01-16T09:01:50.526Z,48.10
2024-01-16T09:04:19.412Z,50.25
2024-01-16T09:06:51.912Z,52.28
2024-01-16T09:09:31.687Z,54.83
2024-01-16T09:11:59.600Z,54.47
2024-01-16T09:14:28.487Z,54.53
2024-01-16T09:16:59.817Z,53.10
2024-01-16T09:19:29.982Z,52.20
2024-01-16T09:22:02.388Z,55.67
2024-01-16T09:24:32.151Z,57.50
2024-01-16T09:27:07.288Z,58.15
2024-01-16T09:29:36.723Z,62.00
2024-01-16T09:32:04.157Z,61.28
2024-01-16T09:34:31.277Z,59.42
2024-01-16T09:37:03.026Z,61.42
2024-01-16T09:39:34.625Z,62.72
2024-01-16T09:42:05.875Z,66.60
2024-01-16T09:44:35.866Z,65.68
2024-01-16T09:47:05.091Z,60.85
2024-01-16T09:49:32.454Z,59.10
2024-01-16T09:52:03.562Z,57.65
2024-01-16T09:54:37.035Z,57.05
2024-01-16T09:57:08.134Z,55.38
2024-01-16T09:59:37.883Z,59.22
2024-01-16T10:02:08.132Z,57.55
2024-01-16T10:04:43.701Z,60.95
2024-01-16T10:07:18.089Z,57.70
2024-01-16T10:09:52.316Z,61.90
2024-01-16T10:12:21.509Z,59.10
2024-01-16T10:14:53.475Z,69.28
2024-01-16T10:17:30.952Z,70.10
2024-01-16T10:20:06.135Z,73.40
2024-01-16T10:22:33.295Z,77.78
2024-01-16T10:25:18.427Z,80.30
2024-01-16T10:27:48.583Z,79.10
2024-01-16T10:30:16.197Z,85.10
2024-01-16T10:32:46.286Z,84.30
2024-01-16T10:35:17.949Z,85.00
2024-01-16T10:37:59.352Z,81.05
2024-01-16T10:40:32.407Z,58.97
2024-01-16T10:43:06.123Z,81.10
2024-01-16T10:45:34.948Z,83.97
2024-01-16T10:48:12.610Z,80.85
2024-01-16T10:50:40.670Z,79.05
2024-01-16T10:53:10.624Z,81.25
2024-01-16T10:55:56.854Z,78.00
2024-01-16T10:58:25.297Z,76.57
2024-01-16T11:00:55.124Z,81.07
2024-01-16T11:03:53.578Z,80.25
2024-01-16T11:06:25.192Z,74.25
2024-01-16T11:08:56.447Z,76.80
2024-01-16T11:11:26.829Z,72.15
2024-01-16T11:13:56.306Z,74.10
2024-01-16T11:16:24.900Z,68.85
2024-01-16T11:18:52.093Z,70.38
2024-01-16T11:21:21.966Z,69.82
2024-01-16T11:23:50.017Z,69.78
2024-01-16T11:26:41.193Z,67.75
2024-01-16T11:29:30.072Z,66.70
2024-01-16T11:32:13.274Z,68.53
2024-01-16T11:34:58.376Z,67.15
2024-01-16T11:37:29.624Z,68.38
2024-01-16T11:40:46.632Z,68.05
2024-01-16T11:43:37.625Z,63.45
2024-01-16T11:46:13.351Z,66.90
2024-01-16T11:48:44.665Z,55.85
2024-01-16T11:51:26.814Z,62.85
2024-01-16T11:53:54.908Z,67.32
2024-01-16T11:56:41.442Z,60.10
2024-01-16T11:59:54.740Z,62.13
2024-01-16T12:03:03.169Z,66.30
2024-01-16T12:05:32.333Z,67.35
2024-01-16T12:08:00.559Z,66.60
2024-01-16T12:10:27.622Z,64.90
2024-01-16T12:13:04.368Z,66.65
2024-01-16T12:15:36.808Z,67.13
2024-01-16T12:18:13.826Z,62.47
2024-01-16T12:20:47.527Z,58.30
2024-01-16T12:23:18.958Z,62.80
2024-01-16T12:26:01.570Z,56.95
2024-01-16T12:28:41.002Z,57.28
2024-01-16T12:31:16.127Z,56.70
2024-01-16T12:33:47.305Z,60.92
2024-01-16T12:36:19.039Z,57.47
2024-01-16T12:38:59.995Z,60.30
2024-01-16T12:41:39.087Z,60.20
2024-01-16T12:44:15.663Z,55.57
2024-01-16T12:46:45.935Z,60.78
2024-01-16T12:49:14.763Z,57.90
2024-01-16T12:51:43.781Z,56.83
2024-01-16T12:54:18.098Z,48.33
2024-01-16T12:56:46.753Z,56.92
2024-01-16T12:59:16.029Z,58.55
2024-01-16T13:01:48.143Z,59.72
2024-01-16T13:04:20.355Z,56.10
2024-01-16T13:09:35.061Z,58.75
2024-01-16T13:12:02.587Z,58.22
2024-01-16T13:14:36.781Z,58.10
2024-01-16T13:17:09.567Z,57.75
2024-01-16T13:19:39.164Z,58.78
2024-01-16T13:22:17.627Z,57.80
2024-01-16T13:25:05.789Z,57.10
2024-01-16T13:27:42.007Z,55.55
2024-01-16T13:30:09.761Z,60.17
2024-01-16T13:32:44.737Z,49.10
2024-01-16T13:35:17.875Z,47.47
2024-01-16T13:37:45.364Z,54.40
2024-01-16T13:40:22.631Z,59.33
2024-01-16T13:42:51.613Z,57.65
2024-01-16T13:45:19.787Z,59.05
2024-01-16T13:47:51.781Z,51.22
2024-01-16T13:50:19.157Z,60.13
2024-01-16T13:52:46.138Z,57.53
2024-01-16T13:55:13.416Z,56.90
2024-01-16T13:57:43.545Z,56.05
2024-01-16T14:00:15.018Z,53.88
2024-01-16T14:02:50.137Z,54.85
2024-01-16T14:05:20.581Z,55.05
2024-01-16T14:07:54.088Z,56.78
2024-01-16T14:10:23.142Z,53.17
2024-01-16T14:12:53.681Z,56.75
2024-01-16T14:15:25.777Z,52.97
2024-01-16T14:18:00.471Z,42.25
2024-01-16T14:20:30.622Z,56.92
2024-01-16T14:23:03.552Z,55.10
2024-01-16T14:25:30.655Z,57.03
2024-01-16T14:28:12.501Z,57.92
2024-01-16T14:30:49.237Z,44.78
2024-01-16T14:33:17.577Z,55.05
2024-01-16T14:35:48.285Z,54.28
2024-01-16T14:38:15.869Z,43.63
2024-01-16T14:40:44.661Z,52.58
2024-01-16T14:43:12.212Z,52.58
2024-01-16T14:45:39.730Z,52.80
2024-01-16T14:48:08.004Z,53.17
2024-01-16T14:50:37.681Z,53.28
2024-01-16T14:53:07.444Z,52.35
2024-01-16T14:55:34.889Z,52.20
2024-01-16T14:58:03.743Z,51.63
2024-01-16T15:00:42.009Z,53.58
2024-01-16T15:03:22.650Z,53.05
2024-01-16T15:05:58.149Z,52.28
2024-01-16T15:08:32.813Z,53.42
2024-01-16T15:11:10.987Z,52.65
2024-01-16T15:13:41.956Z,53.58
2024-01-16T15:16:13.163Z,53.55
2024-01-16T15:18:44.686Z,51.45
2024-01-16T15:21:12.405Z,51.45
2024-01-16T15:23:42.859Z,50.47
2024-01-16T15:26:35.027Z,49.47
2024-01-16T15:29:07.276Z,50.55
2024-01-16T15:31:34.769Z,50.63
2024-01-16T15:34:20.778Z,50.67
2024-01-16T15:36:49.065Z,52.45
2024-01-16T15:39:17.397Z,50.47
2024-01-16T15:41:47.966Z,51.78
2024-01-16T15:44:26.409Z,46.58
2024-01-16T15:47:15.641Z,46.35
2024-01-16T15:49:56.856Z,49.22
2024-01-16T15:52:53.106Z,47.95
2024-01-16T15:55:48.131Z,47.65
2024-01-16T15:58:34.968Z,46.05
2024-01-16T16:01:43.422Z,48.92
2024-01-16T16:04:12.820Z,46.83
2024-01-16T16:06:42.135Z,47.88
2024-01-16T16:09:24.917Z,45.20
2024-01-16T16:14:53.639Z,45.60
2024-01-16T16:17:38.382Z,45.30
2024-01-16T16:20:16.467Z,46.13
2024-01-16T16:22:48.233Z,48.20
2024-01-16T16:25:16.940Z,48.20
2024-01-16T16:28:02.328Z,48.72
2024-01-16T16:30:38.036Z,49.22
2024-01-16T16:33:10.250Z,46.88
2024-01-16T16:35:45.551Z,49.53
2024-01-16T16:38:12.863Z,48.88
2024-01-16T16:40:49.559Z,47.97
2024-01-16T16:43:32.315Z,49.38
2024-01-16T16:46:04.933Z,50.75
2024-01-16T16:48:33.442Z,49.58
2024-01-16T16:51:11.946Z,47.85
2024-01-16T16:53:44.368Z,48.95
2024-01-16T16:56:17.414Z,50.00
2024-01-16T16:58:48.279Z,50.78
2024-01-16T17:01:20.370Z,50.78
2024-01-16T17:03:54.903Z,49.97
2024-01-16T17:06:27.994Z,50.58
2024-01-16T17:08:55.898Z,50.60
2024-01-16T17:11:27.157Z,53.53
2024-01-16T17:13:59.697Z,53.30
2024-01-16T17:16:30.060Z,51.87
2024-01-16T17:18:59.771Z,50.67
2024-01-16T17:21:28.350Z,51.92
2024-01-16T17:24:08.690Z,51.13
2024-01-16T17:26:41.470Z,52.33
2024-01-16T17:29:09.485Z,51.70
2024-01-16T17:31:38.623Z,54.42
2024-01-16T17:34:06.910Z,53.65
2024-01-16T17:36:40.544Z,53.35
2024-01-16T17:39:13.530Z,56.25
2024-01-16T17:41:49.094Z,55.28
2024-01-16T17:44:17.922Z,53.50
2024-01-16T17:46:47.677Z,56.58
2024-01-16T17:49:20.738Z,57.50
2024-01-16T17:51:49.873Z,54.17
2024-01-16T17:54:19.924Z,57.03
2024-01-16T17:56:49.148Z,56.17
2024-01-16T17:59:18.016Z,56.63
2024-01-16T18:01:45.440Z,58.08
2024-01-16T18:04:21.366Z,58.53
2024-01-16T18:06:51.932Z,62.58
2024-01-16T18:09:34.557Z,62.55
2024-01-16T18:12:06.389Z,66.57
2024-01-16T18:14:48.579Z,63.67
2024-01-16T18:17:15.712Z,64.40
2024-01-16T18:19:45.137Z,67.15
2024-01-16T18:22:20.408Z,69.78
2024-01-16T18:25:00.583Z,71.90
2024-01-16T18:27:27.650Z,69.25
2024-01-16T18:30:00.281Z,67.30
2024-01-16T18:32:29.063Z,64.57
2024-01-16T18:35:00.363Z,67.20
2024-01-16T18:37:35.587Z,69.38
2024-01-16T18:40:04.062Z,69.95
2024-01-16T18:42:31.660Z,69.05
2024-01-16T18:45:00.127Z,74.35
2024-01-16T18:47:28.008Z,71.65
2024-01-16T18:49:55.590Z,69.80
2024-01-16T18:52:24.358Z,68.00
2024-01-16T18:54:56.816Z,66.57
2024-01-16T18:57:27.649Z,70.95
2024-01-16T18:59:58.082Z,66.55
2024-01-16T19:02:29.571Z,66.95
2024-01-16T19:05:09.397Z,68.95
2024-01-16T19:07:40.012Z,69.97
2024-01-16T19:10:18.874Z,67.20
2024-01-16T19:13:06.320Z,67.93
2024-01-16T19:15:37.403Z,68.97
2024-01-16T19:18:12.204Z,67.05
2024-01-16T19:20:47.269Z,68.57
2024-01-16T19:23:20.114Z,66.20
2024-01-16T19:25:56.716Z,64.63
2024-01-16T19:32:00.604Z,64.38
2024-01-16T19:34:46.059Z,65.70
2024-01-16T19:37:27.535Z,68.40
2024-01-16T19:39:58.597Z,63.97
2024-01-16T19:42:42.660Z,67.78
2024-01-16T19:45:20.287Z,63.35
2024-01-16T19:48:08.246Z,63.85
2024-01-16T19:50:47.482Z,65.10
2024-01-16T19:53:21.437Z,62.95
2024-01-16T19:55:52.713Z,64.45
2024-01-16T20:01:08.267Z,67.20
2024-01-16T20:03:44.774Z,65.65
2024-01-16T20:06:20.483Z,66.30
2024-01-16T20:08:54.514Z,65.75
2024-01-16T20:11:35.329Z,64.90
2024-01-16T20:14:09.118Z,64.32
2024-01-16T20:16:38.803Z,65.72
2024-01-16T20:19:22.406Z,64.07
2024-01-16T20:21:55.547Z,64.70
2024-01-16T20:24:40.985Z,64.88
2024-01-16T20:27:15.743Z,62.60
2024-01-16T20:30:08.286Z,66.28
2024-01-16T20:32:36.935Z,61.40
2024-01-16T20:35:05.331Z,61.70
2024-01-16T20:37:39.720Z,64.10
2024-01-16T20:40:07.834Z,61.55
2024-01-16T20:42:39.324Z,59.83
2024-01-16T20:45:07.753Z,59.22
2024-01-16T20:50:53.517Z,51.75
2024-01-16T20:53:52.742Z,53.60
2024-01-16T20:56:51.686Z,53.83
2024-01-16T20:59:42.058Z,51.20
2024-01-16T21:02:47.377Z,51.55
2024-01-16T21:08:37.832Z,49.88
2024-01-16T21:11:10.459Z,49.08
2024-01-16T21:13:56.575Z,48.92
2024-01-16T21:16:54.177Z,49.45
2024-01-16T21:19:47.622Z,48.20
2024-01-16T21:22:36.726Z,50.22
2024-01-16T21:25:11.611Z,50.13
2024-01-16T21:27:50.619Z,52.22
2024-01-16T21:30:28.447Z,54.72
2024-01-16T21:33:00.681Z,53.10
2024-01-16T21:35:42.757Z,53.63
2024-01-16T21:38:23.017Z,53.53
2024-01-16T21:41:06.032Z,53.95
2024-01-16T21:46:49.860Z,52.08
2024-01-16T21:49:31.192Z,52.08
2024-01-16T21:52:08.291Z,53.17
2024-01-16T21:54:44.680Z,52.00
2024-01-16T21:57:26.598Z,53.45
2024-01-16T22:00:15.328Z,53.80
2024-01-16T22:03:18.445Z,51.67
2024-01-16T22:05:47.207Z,54.30
2024-01-16T22:08:14.611Z,55.53
2024-01-16T22:10:43.707Z,59.55
2024-01-16T22:13:29.648Z,61.17
2024-01-16T22:15:57.843Z,58.95
2024-01-16T22:18:25.263Z,62.10
2024-01-16T22:20:52.832Z,63.17
2024-01-16T22:23:21.010Z,67.03
2024-01-16T22:25:48.621Z,67.35
2024-01-16T22:28:22.915Z,67.20
2024-01-16T22:30:50.069Z,67.25
2024-01-16T22:33:20.867Z,68.15
2024-01-16T22:35:48.072Z,68.15
2024-01-16T22:38:22.389Z,67.82
2024-01-16T22:40:49.762Z,71.47
2024-01-16T22:43:18.552Z,69.45
2024-01-16T22:45:46.828Z,72.28
2024-01-16T22:48:14.781Z,68.75
2024-01-16T22:50:51.111Z,68.95
2024-01-16T22:53:26.823Z,73.78
2024-01-16T22:56:02.187Z,71.20
2024-01-16T22:58:36.680Z,74.72
2024-01-16T23:01:08.934Z,71.30
2024-01-16T23:03:36.720Z,73.63
2024-01-16T23:06:04.210Z,70.10
2024-01-16T23:08:31.869Z,71.50
2024-01-16T23:10:59.283Z,70.43
2024-01-16T23:13:26.509Z,70.45
2024-01-16T23:15:54.903Z,68.22
2024-01-16T23:18:27.123Z,71.63
2024-01-16T23:20:57.720Z,68.53
2024-01-16T23:23:25.888Z,69.47
2024-01-16T23:25:56.666Z,67.75
2024-01-16T23:28:26.958Z,70.35
2024-01-16T23:30:54.031Z,68.43
2024-01-16T23:33:21.397Z,68.45
2024-01-16T23:35:48.687Z,68.10
2024-01-16T23:38:17.705Z,67.80
2024-01-16T23:40:44.905Z,67.93
2024-01-16T23:43:16.092Z,70.85
2024-01-16T23:45:43.270Z,66.10
2024-01-16T23:48:10.734Z,66.00
2024-01-16T23:50:39.691Z,66.00
2024-01-16T23:53:08.506Z,65.15
2024-01-16T23:55:43.131Z,64.43
2024-01-16T23:58:19.256Z,66.45
